sensor_id;sensor_type;location;lat;lon;timestamp;pressure;altitude;pressure_sealevel;temperature;humidity
10510;BME280;5303;53.266;10.410;2023-03-20T00:00:50;101429.34;;;10.08;100.00
10510;BME280;5303;53.266;10.410;2023-03-20T00:03:16;101436.69;;;10.07;100.00
10510;BME280;5303;53.266;10.410;2023-03-20T00:05:41;101444.63;;;10.18;100.00
10510;BME280;5303;53.266;10.410;2023-03-20T00:08:07;101444.09;;;10.15;100.00
10510;BME280;5303;53.266;10.410;2023-03-20T00:10:39;101443.59;;;10.19;100.00
10510;BME280;5303;53.266;10.410;2023-03-20T00:13:07;101444.47;;;10.20;100.00
10510;BME280;5303;53.266;10.410;2023-03-20T00:15:36;101444.84;;;10.25;100.00
10510;BME280;5303;53.266;10.410;2023-03-20T00:18:08;101452.03;;;10.26;100.00
10510;BME280;5303;53.266;10.410;2023-03-20T00:20:36;101437.69;;;10.24;100.00
10510;BME280;5303;53.266;10.410;2023-03-20T00:23:01;101436.16;;;10.21;100.00
10510;BME280;5303;53.266;10.410;2023-03-20T00:25:28;101431.09;;;10.26;100.00
10510;BME280;5303;53.266;10.410;2023-03-20T00:27:53;101436.69;;;10.25;100.00
10510;BME280;5303;53.266;10.410;2023-03-20T00:30:21;101439.41;;;10.25;100.00
10510;BME280;5303;53.266;10.410;2023-03-20T00:32:49;101433.13;;;10.24;100.00
10510;BME280;5303;53.266;10.410;2023-03-20T00:35:29;101434.41;;;10.20;100.00
10510;BME280;5303;53.266;10.410;2023-03-20T00:37:56;101431.09;;;10.26;100.00
10510;BME280;5303;53.266;10.410;2023-03-20T00:40:26;101424.66;;;10.28;100.00
10510;BME280;5303;53.266;10.410;2023-03-20T00:42:58;101422.47;;;10.31;100.00
10510;BME280;5303;53.266;10.410;2023-03-20T00:45:23;101424.03;;;10.34;100.00
10510;BME280;5303;53.266;10.410;2023-03-20T00:47:50;101426.06;;;10.32;100.00
10510;BME280;5303;53.266;10.410;2023-03-20T00:50:19;101415.31;;;10.30;100.00
10510;BME280;5303;53.266;10.410;2023-03-20T00:52:46;101417.72;;;10.33;100.00
10510;BME280;5303;53.266;10.410;2023-03-20T00:55:12;101420.44;;;10.33;100.00
10510;BME280;5303;53.266;10.410;2023-03-20T00:57:48;101423.38;;;10.40;100.00
10510;BME280;5303;53.266;10.410;2023-03-20T01:00:37;101418.66;;;10.42;100.00
10510;BME280;5303;53.266;10.410;2023-03-20T01:03:11;101417.63;;;10.43;100.00
10510;BME280;5303;53.266;10.410;2023-03-20T01:05:37;101418.81;;;10.40;100.00
10510;BME280;5303;53.266;10.410;2023-03-20T01:08:26;101424.50;;;10.47;100.00
10510;BME280;5303;53.266;10.410;2023-03-20T01:10:54;101419.81;;;10.39;100.00
10510;BME280;5303;53.266;10.410;2023-03-20T01:13:26;101421.69;;;10.39;100.00
10510;BME280;5303;53.266;10.410;2023-03-20T01:15:54;101412.03;;;10.44;100.00
10510;BME280;5303;53.266;10.410;2023-03-20T01:18:22;101415.78;;;10.43;100.00
10510;BME280;5303;53.266;10.410;2023-03-20T01:20:48;101414.59;;;10.46;100.00
10510;BME280;5303;53.266;10.410;2023-03-20T01:23:14;101420.97;;;10.37;100.00
10510;BME280;5303;53.266;10.410;2023-03-20T01:25:40;101415.22;;;10.40;100.00
10510;BME280;5303;53.266;10.410;2023-03-20T01:28:21;101420.03;;;10.46;100.00
10510;BME280;5303;53.266;10.410;2023-03-20T01:30:47;101421.06;;;10.45;100.00
10510;BME280;5303;53.266;10.410;2023-03-20T01:33:21;101421.91;;;10.45;100.00
10510;BME280;5303;53.266;10.410;2023-03-20T01:35:48;101413.75;;;10.45;100.00
10510;BME280;5303;53.266;10.410;2023-03-20T01:38:19;101414.97;;;10.51;100.00
10510;BME280;5303;53.266;10.410;2023-03-20T01:41:03;101422.94;;;10.44;100.00
10510;BME280;5303;53.266;10.410;2023-03-20T01:43:33;101419.41;;;10.52;100.00
10510;BME280;5303;53.266;10.410;2023-03-20T01:53:50;101433.97;;;10.61;100.00
10510;BME280;5303;53.266;10.410;2023-03-20T01:56:18;101423.59;;;10.64;100.00
10510;BME280;5303;53.266;10.410;2023-03-20T01:58:47;101424.09;;;10.60;100.00
10510;BME280;5303;53.266;10.410;2023-03-20T02:01:13;101438.56;;;10.60;100.00
10510;BME280;5303;53.266;10.410;2023-03-20T02:03:42;101428.19;;;10.64;100.00
10510;BME280;5303;53.266;10.410;2023-03-20T02:06:08;101427.69;;;10.68;100.00
10510;BME280;5303;53.266;10.410;2023-03-20T02:08:39;101424.50;;;10.73;100.00
10510;BME280;5303;53.266;10.410;2023-03-20T02:11:05;101425.69;;;10.70;100.00
10510;BME280;5303;53.266;10.410;2023-03-20T02:13:31;101425.19;;;10.75;100.00
10510;BME280;5303;53.266;10.410;2023-03-20T02:16:07;101423.81;;;10.71;100.00
10510;BME280;5303;53.266;10.410;2023-03-20T02:18:34;101423.81;;;10.71;100.00
10510;BME280;5303;53.266;10.410;2023-03-20T02:21:17;101414.28;;;10.75;100.00
10510;BME280;5303;53.266;10.410;2023-03-20T02:26:40;101428.81;;;10.76;100.00
10510;BME280;5303;53.266;10.410;2023-03-20T02:37:54;101416.22;;;10.83;100.00
10510;BME280;5303;53.266;10.410;2023-03-20T02:43:01;101407.16;;;10.74;100.00
10510;BME280;5303;53.266;10.410;2023-03-20T02:46:10;101404.41;;;10.74;100.00
10510;BME280;5303;53.266;10.410;2023-03-20T02:48:51;101404.28;;;10.76;100.00
10510;BME280;5303;53.266;10.410;2023-03-20T02:51:40;101406.50;;;10.80;100.00
10510;BME280;5303;53.266;10.410;2023-03-20T02:54:25;101403.13;;;10.86;100.00
10510;BME280;5303;53.266;10.410;2023-03-20T02:57:00;101409.63;;;10.85;100.00
10510;BME280;5303;53.266;10.410;2023-03-20T02:59:30;101409.28;;;10.88;100.00
10510;BME280;5303;53.266;10.410;2023-03-20T03:04:56;101400.34;;;10.78;100.00
10510;BME280;5303;53.266;10.410;2023-03-20T03:07:25;101403.47;;;10.83;100.00
10510;BME280;5303;53.266;10.410;2023-03-20T03:10:02;101410.28;;;10.87;100.00
10510;BME280;5303;53.266;10.410;2023-03-20T03:12:34;101404.53;;;10.90;100.00
10510;BME280;5303;53.266;10.410;2023-03-20T03:15:05;101398.06;;;10.91;100.00
10510;BME280;5303;53.266;10.410;2023-03-20T03:17:35;101404.16;;;10.85;100.00
10510;BME280;5303;53.266;10.410;2023-03-20T03:20:06;101397.19;;;10.65;100.00
10510;BME280;5303;53.266;10.410;2023-03-20T03:22:34;101391.81;;;10.73;100.00
10510;BME280;5303;53.266;10.410;2023-03-20T03:25:00;101399.69;;;10.76;100.00
10510;BME280;5303;53.266;10.410;2023-03-20T03:27:35;101400.66;;;10.75;100.00
10510;BME280;5303;53.266;10.410;2023-03-20T03:30:06;101401.22;;;10.79;100.00
10510;BME280;5303;53.266;10.410;2023-03-20T03:32:35;101397.84;;;10.85;100.00
10510;BME280;5303;53.266;10.410;2023-03-20T03:35:03;101399.50;;;10.78;100.00
10510;BME280;5303;53.266;10.410;2023-03-20T03:37:46;101400.88;;;10.82;100.00
10510;BME280;5303;53.266;10.410;2023-03-20T03:40:29;101403.25;;;10.77;100.00
10510;BME280;5303;53.266;10.410;2023-03-20T03:43:07;101401.25;;;10.87;100.00
10510;BME280;5303;53.266;10.410;2023-03-20T03:45:39;101399.50;;;10.78;100.00
10510;BME280;5303;53.266;10.410;2023-03-20T03:48:13;101400.88;;;10.82;100.00
10510;BME280;5303;53.266;10.410;2023-03-20T03:50:44;101398.50;;;10.79;100.00
10510;BME280;5303;53.266;10.410;2023-03-20T03:53:15;101391.00;;;10.81;100.00
10510;BME280;5303;53.266;10.410;2023-03-20T03:55:44;101390.97;;;10.72;100.00
10510;BME280;5303;53.266;10.410;2023-03-20T03:58:13;101385.03;;;10.77;100.00
10510;BME280;5303;53.266;10.410;2023-03-20T04:00:41;101385.34;;;10.74;100.00
10510;BME280;5303;53.266;10.410;2023-03-20T04:03:09;101381.78;;;10.73;100.00
10510;BME280;5303;53.266;10.410;2023-03-20T04:05:39;101387.22;;;10.73;100.00
10510;BME280;5303;53.266;10.410;2023-03-20T04:08:05;101387.75;;;10.77;100.00
10510;BME280;5303;53.266;10.410;2023-03-20T04:10:31;101380.59;;;10.76;100.00
10510;BME280;5303;53.266;10.410;2023-03-20T04:12:57;101375.69;;;10.80;100.00
10510;BME280;5303;53.266;10.410;2023-03-20T04:15:22;101375.81;;;10.78;100.00
10510;BME280;5303;53.266;10.410;2023-03-20T04:17:47;101377.22;;;10.82;100.00
10510;BME280;5303;53.266;10.410;2023-03-20T04:20:14;101368.34;;;10.80;100.00
10510;BME280;5303;53.266;10.410;2023-03-20T04:22:40;101380.75;;;10.75;100.00
10510;BME280;5303;53.266;10.410;2023-03-20T04:25:08;101382.41;;;10.67;100.00
10510;BME280;5303;53.266;10.410;2023-03-20T04:27:33;101380.22;;;10.71;100.00
10510;BME280;5303;53.266;10.410;2023-03-20T04:29:59;101377.28;;;10.64;100.00
10510;BME280;5303;53.266;10.410;2023-03-20T04:32:24;101378.56;;;10.52;100.00
10510;BME280;5303;53.266;10.410;2023-03-20T04:34:49;101384.53;;;10.56;100.00
10510;BME280;5303;53.266;10.410;2023-03-20T04:37:16;101381.34;;;10.60;100.00
10510;BME280;5303;53.266;10.410;2023-03-20T04:39:41;101375.56;;;10.63;100.00
10510;BME280;5303;53.266;10.410;2023-03-20T04:42:07;101371.81;;;10.64;100.00
10510;BME280;5303;53.266;10.410;2023-03-20T04:44:33;101375.72;;;10.62;100.00
10510;BME280;5303;53.266;10.410;2023-03-20T04:46:59;101376.44;;;10.64;100.00
10510;BME280;5303;53.266;10.410;2023-03-20T04:49:24;101376.88;;;10.59;100.00
10510;BME280;5303;53.266;10.410;2023-03-20T04:51:50;101369.69;;;10.50;100.00
10510;BME280;5303;53.266;10.410;2023-03-20T04:54:15;101378.50;;;10.44;100.00
10510;BME280;5303;53.266;10.410;2023-03-20T04:56:40;101384.28;;;10.41;100.00
10510;BME280;5303;53.266;10.410;2023-03-20T04:59:05;101380.69;;;10.40;100.00
10510;BME280;5303;53.266;10.410;2023-03-20T05:01:31;101387.34;;;10.46;100.00
10510;BME280;5303;53.266;10.410;2023-03-20T05:03:56;101386.59;;;10.36;100.00
10510;BME280;5303;53.266;10.410;2023-03-20T05:06:26;101386.06;;;10.32;100.00
10510;BME280;5303;53.266;10.410;2023-03-20T05:08:51;101388.88;;;10.40;100.00
10510;BME280;5303;53.266;10.410;2023-03-20T05:11:16;101380.22;;;10.45;100.00
10510;BME280;5303;53.266;10.410;2023-03-20T05:13:42;101380.22;;;10.45;100.00
10510;BME280;5303;53.266;10.410;2023-03-20T05:16:07;101381.53;;;10.41;100.00
10510;BME280;5303;53.266;10.410;2023-03-20T05:18:33;101380.84;;;10.39;100.00
10510;BME280;5303;53.266;10.410;2023-03-20T05:20:58;101386.16;;;10.40;100.00
10510;BME280;5303;53.266;10.410;2023-03-20T05:23:23;101382.19;;;10.35;100.00
10510;BME280;5303;53.266;10.410;2023-03-20T05:25:49;101391.59;;;10.40;100.00
10510;BME280;5303;53.266;10.410;2023-03-20T05:28:14;101380.09;;;10.29;100.00
10510;BME280;5303;53.266;10.410;2023-03-20T05:30:40;101378.28;;;10.37;100.00
10510;BME280;5303;53.266;10.410;2023-03-20T05:33:05;101385.91;;;10.34;100.00
10510;BME280;5303;53.266;10.410;2023-03-20T05:35:32;101393.75;;;10.37;100.00
10510;BME280;5303;53.266;10.410;2023-03-20T05:37:57;101391.72;;;10.39;100.00
10510;BME280;5303;53.266;10.410;2023-03-20T05:40:23;101390.41;;;10.43;100.00
10510;BME280;5303;53.266;10.410;2023-03-20T05:42:49;101392.97;;;10.44;100.00
10510;BME280;5303;53.266;10.410;2023-03-20T05:45:15;101397.09;;;10.48;100.00
10510;BME280;5303;53.266;10.410;2023-03-20T05:47:41;101401.19;;;10.53;100.00
10510;BME280;5303;53.266;10.410;2023-03-20T05:50:06;101402.47;;;10.40;100.00
10510;BME280;5303;53.266;10.410;2023-03-20T05:52:31;101396.00;;;10.41;100.00
10510;BME280;5303;53.266;10.410;2023-03-20T05:54:57;101406.16;;;10.31;100.00
10510;BME280;5303;53.266;10.410;2023-03-20T05:57:22;101407.94;;;10.40;100.00
10510;BME280;5303;53.266;10.410;2023-03-20T05:59:47;101405.44;;;10.47;100.00
10510;BME280;5303;53.266;10.410;2023-03-20T06:02:12;101405.25;;;10.48;100.00
10510;BME280;5303;53.266;10.410;2023-03-20T06:04:38;101404.22;;;10.49;100.00
10510;BME280;5303;53.266;10.410;2023-03-20T06:07:03;101400.38;;;10.34;100.00
10510;BME280;5303;53.266;10.410;2023-03-20T06:09:29;101400.97;;;10.46;100.00
10510;BME280;5303;53.266;10.410;2023-03-20T06:11:54;101406.91;;;10.41;100.00
10510;BME280;5303;53.266;10.410;2023-03-20T06:14:20;101398.75;;;10.41;100.00
10510;BME280;5303;53.266;10.410;2023-03-20T06:16:45;101402.78;;;10.37;100.00
10510;BME280;5303;53.266;10.410;2023-03-20T06:19:11;101408.81;;;10.49;100.00
10510;BME280;5303;53.266;10.410;2023-03-20T06:21:36;101407.13;;;10.30;100.00
10510;BME280;5303;53.266;10.410;2023-03-20T06:24:01;101398.63;;;10.51;100.00
10510;BME280;5303;53.266;10.410;2023-03-20T06:26:27;101389.66;;;10.59;100.00
10510;BME280;5303;53.266;10.410;2023-03-20T06:28:52;101405.47;;;10.55;100.00
10510;BME280;5303;53.266;10.410;2023-03-20T06:31:17;101414.41;;;10.65;100.00
10510;BME280;5303;53.266;10.410;2023-03-20T06:33:43;101408.41;;;10.62;100.00
10510;BME280;5303;53.266;10.410;2023-03-20T06:36:09;101409.34;;;10.70;100.00
10510;BME280;5303;53.266;10.410;2023-03-20T06:38:35;101422.03;;;10.62;100.00
10510;BME280;5303;53.266;10.410;2023-03-20T06:41:00;101414.47;;;10.73;100.00
10510;BME280;5303;53.266;10.410;2023-03-20T06:43:26;101426.72;;;10.69;100.00
10510;BME280;5303;53.266;10.410;2023-03-20T06:45:51;101427.34;;;10.63;100.00
10510;BME280;5303;53.266;10.410;2023-03-20T06:48:16;101436.09;;;10.75;100.00
10510;BME280;5303;53.266;10.410;2023-03-20T06:50:47;101432.69;;;10.73;100.00
10510;BME280;5303;53.266;10.410;2023-03-20T06:53:12;101443.41;;;10.75;100.00
10510;BME280;5303;53.266;10.410;2023-03-20T06:55:37;101436.97;;;10.76;100.00
10510;BME280;5303;53.266;10.410;2023-03-20T06:58:03;101442.47;;;10.84;100.00
10510;BME280;5303;53.266;10.410;2023-03-20T07:00:28;101441.53;;;10.75;100.00
10510;BME280;5303;53.266;10.410;2023-03-20T07:02:53;101440.69;;;10.75;100.00
10510;BME280;5303;53.266;10.410;2023-03-20T07:05:19;101435.88;;;10.68;100.00
10510;BME280;5303;53.266;10.410;2023-03-20T07:07:44;101434.72;;;10.71;100.00
10510;BME280;5303;53.266;10.410;2023-03-20T07:10:10;101436.16;;;10.57;100.00
10510;BME280;5303;53.266;10.410;2023-03-20T07:12:36;101442.84;;;10.63;100.00
10510;BME280;5303;53.266;10.410;2023-03-20T07:15:02;101445.94;;;10.68;100.00
10510;BME280;5303;53.266;10.410;2023-03-20T07:17:27;101442.53;;;10.66;100.00
10510;BME280;5303;53.266;10.410;2023-03-20T07:19:52;101444.06;;;10.68;100.00
10510;BME280;5303;53.266;10.410;2023-03-20T07:22:23;101444.34;;;10.83;100.00
10510;BME280;5303;53.266;10.410;2023-03-20T07:24:49;101446.03;;;10.84;100.00
10510;BME280;5303;53.266;10.410;2023-03-20T07:27:15;101450.22;;;10.70;100.00
10510;BME280;5303;53.266;10.410;2023-03-20T07:29:42;101461.63;;;10.74;100.00
10510;BME280;5303;53.266;10.410;2023-03-20T07:32:07;101458.34;;;10.88;100.00
10510;BME280;5303;53.266;10.410;2023-03-20T07:34:32;101450.38;;;10.95;100.00
10510;BME280;5303;53.266;10.410;2023-03-20T07:36:58;101454.84;;;10.78;100.00
10510;BME280;5303;53.266;10.410;2023-03-20T07:39:23;101456.63;;;10.87;100.00
10510;BME280;5303;53.266;10.410;2023-03-20T07:41:48;101460.19;;;10.88;100.00
10510;BME280;5303;53.266;10.410;2023-03-20T07:44:14;101461.00;;;10.80;100.00
10510;BME280;5303;53.266;10.410;2023-03-20T07:46:39;101458.03;;;10.91;100.00
10510;BME280;5303;53.266;10.410;2023-03-20T07:49:05;101454.31;;;11.01;100.00
10510;BME280;5303;53.266;10.410;2023-03-20T07:51:31;101458.72;;;10.93;100.00
10510;BME280;5303;53.266;10.410;2023-03-20T07:53:57;101460.91;;;10.90;100.00
10510;BME280;5303;53.266;10.410;2023-03-20T07:56:22;101465.34;;;10.91;100.00
10510;BME280;5303;53.266;10.410;2023-03-20T07:58:47;101465.00;;;10.94;100.00
10510;BME280;5303;53.266;10.410;2023-03-20T08:01:12;101466.56;;;10.96;100.00
10510;BME280;5303;53.266;10.410;2023-03-20T08:03:38;101466.56;;;10.96;100.00
10510;BME280;5303;53.266;10.410;2023-03-20T08:06:03;101462.28;;;10.94;100.00
10510;BME280;5303;53.266;10.410;2023-03-20T08:08:31;101465.19;;;10.92;100.00
10510;BME280;5303;53.266;10.410;2023-03-20T08:10:57;101462.34;;;11.02;100.00
10510;BME280;5303;53.266;10.410;2023-03-20T08:13:22;101458.88;;;10.92;100.00
10510;BME280;5303;53.266;10.410;2023-03-20T08:15:47;101469.16;;;10.98;100.00
10510;BME280;5303;53.266;10.410;2023-03-20T08:18:12;101469.25;;;10.88;100.00
10510;BME280;5303;53.266;10.410;2023-03-20T08:20:38;101468.16;;;10.81;100.00
10510;BME280;5303;53.266;10.410;2023-03-20T08:23:03;101472.34;;;10.93;100.00
10510;BME280;5303;53.266;10.410;2023-03-20T08:25:28;101472.84;;;10.71;100.00
10510;BME280;5303;53.266;10.410;2023-03-20T08:27:58;101479.59;;;10.85;100.00
10510;BME280;5303;53.266;10.410;2023-03-20T08:30:23;101479.06;;;10.81;100.00
10510;BME280;5303;53.266;10.410;2023-03-20T08:32:49;101480.63;;;10.84;100.00
10510;BME280;5303;53.266;10.410;2023-03-20T08:35:14;101480.97;;;10.63;100.00
10510;BME280;5303;53.266;10.410;2023-03-20T08:37:39;101483.84;;;10.61;100.00
10510;BME280;5303;53.266;10.410;2023-03-20T08:40:05;101486.19;;;10.56;100.00
10510;BME280;5303;53.266;10.410;2023-03-20T08:42:31;101488.84;;;10.66;100.00
10510;BME280;5303;53.266;10.410;2023-03-20T08:44:56;101492.09;;;10.69;100.00
10510;BME280;5303;53.266;10.410;2023-03-20T08:47:21;101495.91;;;10.77;100.00
10510;BME280;5303;53.266;10.410;2023-03-20T08:49:46;101490.38;;;10.68;100.00
10510;BME280;5303;53.266;10.410;2023-03-20T08:52:12;101495.03;;;10.76;100.00
10510;BME280;5303;53.266;10.410;2023-03-20T08:54:37;101495.03;;;10.76;100.00
10510;BME280;5303;53.266;10.410;2023-03-20T08:57:03;101491.69;;;10.82;100.00
10510;BME280;5303;53.266;10.410;2023-03-20T08:59:28;101497.81;;;10.84;100.00
10510;BME280;5303;53.266;10.410;2023-03-20T09:01:53;101504.13;;;10.85;100.00
10510;BME280;5303;53.266;10.410;2023-03-20T09:04:19;101498.34;;;10.88;100.00
10510;BME280;5303;53.266;10.410;2023-03-20T09:06:45;101503.75;;;10.80;100.00
10510;BME280;5303;53.266;10.410;2023-03-20T09:09:10;101493.94;;;10.87;100.00
10510;BME280;5303;53.266;10.410;2023-03-20T09:11:39;101502.19;;;10.77;100.00
10510;BME280;5303;53.266;10.410;2023-03-20T09:14:06;101500.31;;;10.78;100.00
10510;BME280;5303;53.266;10.410;2023-03-20T09:16:31;101491.88;;;10.63;100.00
10510;BME280;5303;53.266;10.410;2023-03-20T09:18:57;101484.88;;;10.60;100.00
10510;BME280;5303;53.266;10.410;2023-03-20T09:21:22;101493.16;;;10.77;100.00
10510;BME280;5303;53.266;10.410;2023-03-20T09:23:47;101489.50;;;10.68;100.00
10510;BME280;5303;53.266;10.410;2023-03-20T09:26:13;101495.50;;;10.71;100.00
10510;BME280;5303;53.266;10.410;2023-03-20T09:28:38;101488.03;;;10.73;100.00
10510;BME280;5303;53.266;10.410;2023-03-20T09:31:04;101489.88;;;10.91;100.00
10510;BME280;5303;53.266;10.410;2023-03-20T09:33:29;101492.22;;;10.86;100.00
10510;BME280;5303;53.266;10.410;2023-03-20T09:35:54;101494.53;;;10.99;100.00
10510;BME280;5303;53.266;10.410;2023-03-20T09:38:20;101494.31;;;10.92;100.00
10510;BME280;5303;53.266;10.410;2023-03-20T09:40:52;101494.03;;;11.03;100.00
10510;BME280;5303;53.266;10.410;2023-03-20T09:46:31;101497.59;;;10.95;100.00
10510;BME280;5303;53.266;10.410;2023-03-20T09:49:12;101490.09;;;10.98;100.00
10510;BME280;5303;53.266;10.410;2023-03-20T09:51:52;101499.50;;;11.03;100.00
10510;BME280;5303;53.266;10.410;2023-03-20T09:54:34;101499.19;;;11.06;100.00
10510;BME280;5303;53.266;10.410;2023-03-20T09:57:01;101496.09;;;11.01;100.00
10510;BME280;5303;53.266;10.410;2023-03-20T09:59:29;101499.13;;;10.98;100.00
10510;BME280;5303;53.266;10.410;2023-03-20T10:02:00;101502.28;;;11.11;100.00
10510;BME280;5303;53.266;10.410;2023-03-20T10:04:28;101500.78;;;11.17;100.00
10510;BME280;5303;53.266;10.410;2023-03-20T10:06:54;101491.59;;;11.18;100.00
10510;BME280;5303;53.266;10.410;2023-03-20T10:09:26;101493.50;;;11.26;100.00
10510;BME280;5303;53.266;10.410;2023-03-20T10:15:19;101489.81;;;11.35;100.00
10510;BME280;5303;53.266;10.410;2023-03-20T10:18:07;101485.84;;;11.29;100.00
10510;BME280;5303;53.266;10.410;2023-03-20T10:21:20;101487.25;;;11.33;100.00
10510;BME280;5303;53.266;10.410;2023-03-20T10:26:23;101498.53;;;11.12;100.00
10510;BME280;5303;53.266;10.410;2023-03-20T10:37:20;101504.16;;;11.11;100.00
10510;BME280;5303;53.266;10.410;2023-03-20T10:42:40;101487.25;;;11.07;100.00
10510;BME280;5303;53.266;10.410;2023-03-20T10:45:24;101492.16;;;11.04;100.00
10510;BME280;5303;53.266;10.410;2023-03-20T10:47:53;101486.34;;;10.99;100.00
10510;BME280;5303;53.266;10.410;2023-03-20T10:50:23;101488.13;;;11.08;100.00
10510;BME280;5303;53.266;10.410;2023-03-20T10:52:53;101483.25;;;10.93;100.00
10510;BME280;5303;53.266;10.410;2023-03-20T10:55:23;101476.03;;;11.10;100.00
10510;BME280;5303;53.266;10.410;2023-03-20T10:57:52;101476.44;;;10.98;100.00
10510;BME280;5303;53.266;10.410;2023-03-20T11:00:23;101471.34;;;11.21;100.00
10510;BME280;5303;53.266;10.410;2023-03-20T11:02:49;101480.16;;;11.14;100.00
10510;BME280;5303;53.266;10.410;2023-03-20T11:05:21;101474.72;;;11.14;100.00
10510;BME280;5303;53.266;10.410;2023-03-20T11:07:50;101480.69;;;11.18;100.00
10510;BME280;5303;53.266;10.410;2023-03-20T11:10:17;101478.44;;;11.13;100.00
10510;BME280;5303;53.266;10.410;2023-03-20T11:12:47;101472.72;;;11.25;100.00
10510;BME280;5303;53.266;10.410;2023-03-20T11:15:24;101473.25;;;11.28;100.00
10510;BME280;5303;53.266;10.410;2023-03-20T11:20:24;101446.22;;;11.43;100.00
10510;BME280;5303;53.266;10.410;2023-03-20T11:22:57;101454.63;;;11.58;100.00
10510;BME280;5303;53.266;10.410;2023-03-20T11:25:31;101449.16;;;11.58;100.00
10510;BME280;5303;53.266;10.410;2023-03-20T11:28:33;101455.34;;;11.60;100.00
10510;BME280;5303;53.266;10.410;2023-03-20T11:31:04;101453.50;;;11.69;100.00
10510;BME280;5303;53.266;10.410;2023-03-20T11:33:31;101448.03;;;11.69;100.00
10510;BME280;5303;53.266;10.410;2023-03-20T11:35:58;101449.03;;;11.68;100.00
10510;BME280;5303;53.266;10.410;2023-03-20T11:38:23;101450.69;;;11.52;100.00
10510;BME280;5303;53.266;10.410;2023-03-20T11:40:50;101448.16;;;11.59;100.00
10510;BME280;5303;53.266;10.410;2023-03-20T11:43:23;101447.78;;;11.54;100.00
10510;BME280;5303;53.266;10.410;2023-03-20T11:45:59;101442.41;;;11.70;100.00
10510;BME280;5303;53.266;10.410;2023-03-20T11:48:45;101439.50;;;11.72;100.00
10510;BME280;5303;53.266;10.410;2023-03-20T11:51:19;101449.59;;;11.79;100.00
10510;BME280;5303;53.266;10.410;2023-03-20T11:56:25;101433.59;;;11.84;100.00
10510;BME280;5303;53.266;10.410;2023-03-20T12:01:16;101430.25;;;12.15;100.00
10510;BME280;5303;53.266;10.410;2023-03-20T12:03:50;101418.31;;;12.24;100.00
10510;BME280;5303;53.266;10.410;2023-03-20T12:06:28;101414.72;;;12.48;100.00
10510;BME280;5303;53.266;10.410;2023-03-20T12:09:04;101410.97;;;12.41;100.00
10510;BME280;5303;53.266;10.410;2023-03-20T12:14:05;101418.66;;;12.38;100.00
10510;BME280;5303;53.266;10.410;2023-03-20T12:16:33;101420.19;;;12.48;100.00
10510;BME280;5303;53.266;10.410;2023-03-20T12:19:03;101427.03;;;12.52;100.00
10510;BME280;5303;53.266;10.410;2023-03-20T12:21:41;101420.03;;;12.42;100.00
10510;BME280;5303;53.266;10.410;2023-03-20T12:24:28;101418.84;;;12.44;100.00
10510;BME280;5303;53.266;10.410;2023-03-20T12:27:23;101418.50;;;12.31;100.00
10510;BME280;5303;53.266;10.410;2023-03-20T12:29:56;101419.69;;;12.28;100.00
10510;BME280;5303;53.266;10.410;2023-03-20T12:32:51;101422.22;;;12.05;100.00
10510;BME280;5303;53.266;10.410;2023-03-20T12:35:31;101422.75;;;12.01;100.00
10510;BME280;5303;53.266;10.410;2023-03-20T12:37:58;101412.66;;;12.26;100.00
10510;BME280;5303;53.266;10.410;2023-03-20T12:40:36;101423.75;;;12.16;100.00
10510;BME280;5303;53.266;10.410;2023-03-20T12:43:13;101413.88;;;12.23;100.00
10510;BME280;5303;53.266;10.410;2023-03-20T12:45:45;101413.38;;;12.28;100.00
10510;BME280;5303;53.266;10.410;2023-03-20T12:51:32;101413.72;;;12.33;100.00
10510;BME280;5303;53.266;10.410;2023-03-20T12:54:11;101424.47;;;12.18;100.00
10510;BME280;5303;53.266;10.410;2023-03-20T12:56:59;101416.56;;;11.99;100.00
10510;BME280;5303;53.266;10.410;2023-03-20T12:59:39;101420.34;;;11.98;100.00
10510;BME280;5303;53.266;10.410;2023-03-20T13:02:21;101410.41;;;11.97;100.00
10510;BME280;5303;53.266;10.410;2023-03-20T13:07:24;101412.50;;;12.19;100.00
10510;BME280;5303;53.266;10.410;2023-03-20T13:13:35;101406.53;;;12.07;100.00
10510;BME280;5303;53.266;10.410;2023-03-20T13:21:25;101396.09;;;12.19;100.00
10510;BME280;5303;53.266;10.410;2023-03-20T13:27:09;101395.41;;;11.93;100.00
10510;BME280;5303;53.266;10.410;2023-03-20T13:29:50;101393.53;;;12.09;100.00
10510;BME280;5303;53.266;10.410;2023-03-20T13:32:41;101392.38;;;12.20;100.00
10510;BME280;5303;53.266;10.410;2023-03-20T13:38:00;101380.41;;;12.54;100.00
10510;BME280;5303;53.266;10.410;2023-03-20T13:40:38;101376.13;;;12.51;100.00
10510;BME280;5303;53.266;10.410;2023-03-20T13:45:50;101375.41;;;12.74;100.00
10510;BME280;5303;53.266;10.410;2023-03-20T13:48:35;101369.78;;;12.75;100.00
10510;BME280;5303;53.266;10.410;2023-03-20T13:51:30;101361.34;;;12.93;100.00
10510;BME280;5303;53.266;10.410;2023-03-20T13:56:59;101358.94;;;13.07;100.00
10510;BME280;5303;53.266;10.410;2023-03-20T13:59:45;101359.78;;;13.07;100.00
10510;BME280;5303;53.266;10.410;2023-03-20T14:05:02;101343.22;;;13.00;100.00
10510;BME280;5303;53.266;10.410;2023-03-20T14:07:32;101348.38;;;12.87;100.00
10510;BME280;5303;53.266;10.410;2023-03-20T14:12:52;101352.84;;;12.88;100.00
10510;BME280;5303;53.266;10.410;2023-03-20T14:15:18;101347.22;;;12.81;100.00
10510;BME280;5303;53.266;10.410;2023-03-20T14:17:46;101342.41;;;12.83;100.00
10510;BME280;5303;53.266;10.410;2023-03-20T14:20:31;101351.44;;;12.92;100.00